Time,TemperatureF,DewpointF,PressureIn,WindDirection,WindDirectionDegrees,WindSpeedMPH,WindSpeedGustMPH,Humidity,HourlyPrecipIn,Conditions,Clouds,dailyrainin,SoftwareType,DateUTC
2013-04-28 00:01:00,59.0,33.0,-100.00,SSW,205,12.0,15.0,37,0.00,,,-99.99,,2013-04-28 06:01:00,
2013-04-28 00:12:00,57.0,32.0,-100.00,South,191,9.0,10.0,39,0.00,,,-99.99,,2013-04-28 06:12:00,
2013-04-28 00:21:00,56.0,31.0,-100.00,South,188,11.0,12.0,38,0.00,,,-99.99,,2013-04-28 06:21:00,
2013-04-28 00:32:00,56.0,31.0,-100.00,South,188,11.0,12.0,38,0.00,,,-99.99,,2013-04-28 06:32:00,
2013-04-28 00:42:00,56.0,31.0,-100.00,South,186,11.0,13.0,39,0.00,,,-99.99,,2013-04-28 06:42:00,
2013-04-28 00:52:00,56.0,31.0,-100.00,South,186,11.0,13.0,39,0.00,,,-99.99,,2013-04-28 06:52:00,
2013-04-28 01:01:00,56.0,31.0,-100.00,South,186,11.0,13.0,39,0.00,,,-99.99,,2013-04-28 07:01:00,
2013-04-28 01:11:00,55.0,32.0,-100.00,SSW,192,8.0,10.0,42,0.00,,,-99.99,,2013-04-28 07:11:00,
2013-04-28 01:21:00,54.0,33.0,-100.00,South,181,9.0,11.0,43,0.00,,,-99.99,,2013-04-28 07:21:00,
2013-04-28 01:31:00,54.0,33.0,-100.00,South,181,9.0,11.0,43,0.00,,,-99.99,,2013-04-28 07:31:00,
2013-04-28 01:42:00,52.0,30.0,-100.00,SSE,147,9.0,10.0,43,0.00,,,-99.99,,2013-04-28 07:42:00,
2013-04-28 01:52:00,53.0,30.0,-100.00,SSE,152,10.0,11.0,40,0.00,,,-99.99,,2013-04-28 07:52:00,
2013-04-28 02:01:00,53.0,30.0,-100.00,SSE,152,10.0,11.0,40,0.00,,,-99.99,,2013-04-28 08:01:00,
2013-04-28 02:11:00,53.0,30.0,-100.00,SSE,152,10.0,11.0,40,0.00,,,-99.99,,2013-04-28 08:11:00,
2013-04-28 02:21:00,52.0,31.0,-100.00,SSE,147,8.0,9.0,44,0.00,,,-99.99,,2013-04-28 08:21:00,
2013-04-28 02:32:00,52.0,31.0,-100.00,SSE,147,8.0,9.0,44,0.00,,,-99.99,,2013-04-28 08:32:00,
2013-04-28 02:42:00,51.0,31.0,-100.00,SE,140,7.0,9.0,45,0.00,,,-99.99,,2013-04-28 08:42:00,
2013-04-28 02:52:00,51.0,32.0,-100.00,SSE,158,5.0,7.0,47,0.00,,,-99.99,,2013-04-28 08:52:00,
2013-04-28 03:01:00,51.0,32.0,-100.00,SSE,158,5.0,7.0,47,0.00,,,-99.99,,2013-04-28 09:01:00,
2013-04-28 03:11:00,51.0,34.0,-100.00,South,169,7.0,8.0,52,0.00,,,-99.99,,2013-04-28 09:11:00,
2013-04-28 03:21:00,51.0,34.0,-100.00,South,169,7.0,8.0,52,0.00,,,-99.99,,2013-04-28 09:21:00,
2013-04-28 03:32:00,51.0,34.0,-100.00,South,169,7.0,8.0,52,0.00,,,-99.99,,2013-04-28 09:32:00,
2013-04-28 03:42:00,49.0,33.0,-100.00,SSE,150,7.0,8.0,53,0.00,,,-99.99,,2013-04-28 09:42:00,
2013-04-28 03:53:00,45.0,35.0,-100.00,SW,229,3.0,4.0,66,0.00,,,-99.99,,2013-04-28 09:53:00,
2013-04-28 04:03:00,45.0,35.0,-100.00,SW,229,3.0,4.0,66,0.00,,,-99.99,,2013-04-28 10:03:00,
2013-04-28 04:12:00,46.0,35.0,-100.00,SSW,202,6.0,7.0,66,0.00,,,-99.99,,2013-04-28 10:12:00,
2013-04-28 04:22:00,46.0,35.0,-100.00,SSW,202,6.0,7.0,66,0.00,,,-99.99,,2013-04-28 10:22:00,
2013-04-28 04:32:00,46.0,35.0,-100.00,SSW,202,6.0,7.0,66,0.00,,,-99.99,,2013-04-28 10:32:00,
2013-04-28 04:42:00,46.0,36.0,-100.00,South,191,7.0,8.0,69,0.00,,,-99.99,,2013-04-28 10:42:00,
2013-04-28 04:52:00,46.0,36.0,-100.00,SSW,196,6.0,8.0,67,0.00,,,-99.99,,2013-04-28 10:52:00,
2013-04-28 05:02:00,46.0,36.0,-100.00,SSW,196,6.0,8.0,67,0.00,,,-99.99,,2013-04-28 11:02:00,
2013-04-28 05:11:00,45.0,36.0,-100.00,South,178,4.0,6.0,70,0.00,,,-99.99,,2013-04-28 11:11:00,
2013-04-28 05:21:00,47.0,34.0,-100.00,SSE,168,4.0,5.0,62,0.00,,,-99.99,,2013-04-28 11:21:00,
2013-04-28 05:32:00,47.0,34.0,-100.00,SSE,168,4.0,5.0,62,0.00,,,-99.99,,2013-04-28 11:32:00,
2013-04-28 05:42:00,46.0,34.0,-100.00,SSE,147,4.0,4.0,62,0.00,,,-99.99,,2013-04-28 11:42:00,
2013-04-28 05:52:00,45.0,35.0,-100.00,SW,215,3.0,4.0,68,0.00,,,-99.99,,2013-04-28 11:52:00,
2013-04-28 06:01:00,45.0,35.0,-100.00,SW,215,3.0,4.0,68,0.00,,,-99.99,,2013-04-28 12:01:00,
2013-04-28 06:11:00,44.0,33.0,-100.00,SSW,195,2.0,4.0,65,0.00,,,-99.99,,2013-04-28 12:11:00,
2013-04-28 06:21:00,47.0,35.0,-100.00,South,185,7.0,8.0,63,0.00,,,-99.99,,2013-04-28 12:21:00,
2013-04-28 06:32:00,47.0,35.0,-100.00,South,185,7.0,8.0,63,0.00,,,-99.99,,2013-04-28 12:32:00,
2013-04-28 06:42:00,45.0,36.0,-100.00,South,172,6.0,7.0,69,0.00,,,-99.99,,2013-04-28 12:42:00,
2013-04-28 06:52:00,45.0,36.0,-100.00,South,176,6.0,8.0,69,0.00,,,-99.99,,2013-04-28 12:52:00,
2013-04-28 07:01:00,45.0,36.0,-100.00,South,176,6.0,8.0,69,0.00,,,-99.99,,2013-04-28 13:01:00,
2013-04-28 07:11:00,45.0,35.0,-100.00,South,176,5.0,6.0,67,0.00,,,-99.99,,2013-04-28 13:11:00,
2013-04-28 07:21:00,45.0,34.0,-100.00,SSW,202,4.0,6.0,64,0.00,,,-99.99,,2013-04-28 13:21:00,
2013-04-28 07:31:00,45.0,34.0,-100.00,SSW,202,4.0,6.0,64,0.00,,,-99.99,,2013-04-28 13:31:00,
2013-04-28 07:42:00,47.0,34.0,-100.00,SSW,208,4.0,6.0,61,0.00,,,-99.99,,2013-04-28 13:42:00,
2013-04-28 07:52:00,51.0,35.0,-100.00,SSW,208,14.0,17.0,55,0.00,,,-99.99,,2013-04-28 13:52:00,
2013-04-28 08:01:00,51.0,35.0,-100.00,SSW,208,14.0,17.0,55,0.00,,,-99.99,,2013-04-28 14:01:00,
2013-04-28 08:11:00,52.0,35.0,-100.00,SSW,209,17.0,21.0,53,0.00,,,-99.99,,2013-04-28 14:11:00,
2013-04-28 08:21:00,52.0,34.0,-100.00,SSW,209,17.0,23.0,49,0.00,,,-99.99,,2013-04-28 14:21:00,
2013-04-28 08:31:00,52.0,34.0,-100.00,SSW,209,17.0,23.0,49,0.00,,,-99.99,,2013-04-28 14:31:00,
2013-04-28 08:41:00,52.0,34.0,-100.00,SSW,209,19.0,23.0,49,0.00,,,-99.99,,2013-04-28 14:41:00,
2013-04-28 08:52:00,53.0,34.0,-100.00,SSW,205,18.0,23.0,49,0.00,,,-99.99,,2013-04-28 14:52:00,
2013-04-28 09:01:00,53.0,34.0,-100.00,SSW,205,18.0,23.0,49,0.00,,,-99.99,,2013-04-28 15:01:00,
2013-04-28 09:12:00,53.0,34.0,-100.00,SSW,203,20.0,23.0,48,0.00,,,-99.99,,2013-04-28 15:12:00,
2013-04-28 09:21:00,54.0,35.0,-100.00,SSW,206,19.0,23.0,48,0.00,,,-99.99,,2013-04-28 15:21:00,
2013-04-28 09:32:00,54.0,35.0,-100.00,SSW,206,19.0,23.0,48,0.00,,,-99.99,,2013-04-28 15:32:00,
2013-04-28 09:42:00,55.0,36.0,-100.00,SSW,209,21.0,24.0,49,0.00,,,-99.99,,2013-04-28 15:42:00,
2013-04-28 09:53:00,55.0,36.0,-100.00,SSW,209,21.0,24.0,49,0.00,,,-99.99,,2013-04-28 15:53:00,
2013-04-28 10:03:00,55.0,36.0,-100.00,SSW,209,21.0,24.0,49,0.00,,,-99.99,,2013-04-28 16:03:00,
2013-04-28 10:13:00,58.0,37.0,-100.00,SSW,203,22.0,26.0,46,0.00,,,-99.99,,2013-04-28 16:13:00,
2013-04-28 10:23:00,58.0,36.0,-100.00,SSW,203,22.0,28.0,45,0.00,,,-99.99,,2013-04-28 16:23:00,
2013-04-28 10:32:00,58.0,36.0,-100.00,SSW,203,22.0,28.0,45,0.00,,,-99.99,,2013-04-28 16:32:00,
2013-04-28 10:42:00,59.0,36.0,-100.00,SSW,205,21.0,24.0,42,0.00,,,-99.99,,2013-04-28 16:42:00,
2013-04-28 10:52:00,61.0,35.0,-100.00,SSW,209,23.0,27.0,38,0.00,,,-99.99,,2013-04-28 16:52:00,
2013-04-28 11:02:00,61.0,35.0,-100.00,SSW,209,23.0,27.0,38,0.00,,,-99.99,,2013-04-28 17:02:00,
2013-04-28 11:12:00,61.0,35.0,-100.00,SSW,209,23.0,27.0,38,0.00,,,-99.99,,2013-04-28 17:12:00,
2013-04-28 11:21:00,62.0,33.0,-100.00,SSW,212,20.0,24.0,34,0.00,,,-99.99,,2013-04-28 17:21:00,
2013-04-28 11:32:00,62.0,33.0,-100.00,SSW,212,20.0,24.0,34,0.00,,,-99.99,,2013-04-28 17:32:00,
2013-04-28 11:42:00,64.0,33.0,-100.00,SW,234,23.0,25.0,31,0.00,,,-99.99,,2013-04-28 17:42:00,
2013-04-28 11:52:00,64.0,33.0,-100.00,SW,229,25.0,28.0,31,0.00,,,-99.99,,2013-04-28 17:52:00,
2013-04-28 12:02:00,64.0,33.0,-100.00,SW,229,25.0,28.0,31,0.00,,,-99.99,,2013-04-28 18:02:00,
2013-04-28 12:12:00,64.0,33.0,-100.00,SW,229,25.0,28.0,31,0.00,,,-99.99,,2013-04-28 18:12:00,
2013-04-28 12:22:00,63.0,32.0,-100.00,SW,224,23.0,26.0,31,0.00,,,-99.99,,2013-04-28 18:22:00,
2013-04-28 12:32:00,63.0,32.0,-100.00,SW,224,23.0,26.0,31,0.00,,,-99.99,,2013-04-28 18:32:00,
2013-04-28 12:42:00,64.0,31.0,-100.00,SW,216,23.0,35.0,28,0.00,,,-99.99,,2013-04-28 18:42:00,
2013-04-28 12:52:00,65.0,27.0,-100.00,WSW,239,26.0,33.0,24,0.00,,,-99.99,,2013-04-28 18:52:00,
2013-04-28 13:02:00,65.0,27.0,-100.00,WSW,239,26.0,33.0,24,0.00,,,-99.99,,2013-04-28 19:02:00,
2013-04-28 13:11:00,66.0,26.0,-100.00,WSW,237,26.0,32.0,21,0.00,,,-99.99,,2013-04-28 19:11:00,
2013-04-28 13:21:00,66.0,26.0,-100.00,WSW,237,26.0,32.0,21,0.00,,,-99.99,,2013-04-28 19:21:00,
2013-04-28 13:31:00,66.0,26.0,-100.00,WSW,237,26.0,32.0,21,0.00,,,-99.99,,2013-04-28 19:31:00,
2013-04-28 13:41:00,67.0,28.0,-100.00,WSW,250,25.0,30.0,23,0.00,,,-99.99,,2013-04-28 19:41:00,
2013-04-28 13:52:00,65.0,26.0,-100.00,WSW,243,25.0,29.0,22,0.00,,,-99.99,,2013-04-28 19:52:00,
2013-04-28 14:01:00,65.0,26.0,-100.00,WSW,243,25.0,29.0,22,0.00,,,-99.99,,2013-04-28 20:01:00,
2013-04-28 14:11:00,66.0,27.0,-100.00,WSW,237,24.0,29.0,23,0.00,,,-99.99,,2013-04-28 20:11:00,
2013-04-28 14:22:00,67.0,28.0,-100.00,SW,232,24.0,32.0,23,0.00,,,-99.99,,2013-04-28 20:22:00,
2013-04-28 14:32:00,67.0,28.0,-100.00,SW,232,24.0,32.0,23,0.00,,,-99.99,,2013-04-28 20:32:00,
2013-04-28 14:41:00,67.0,28.0,-100.00,SW,232,24.0,32.0,23,0.00,,,-99.99,,2013-04-28 20:41:00,
2013-04-28 14:52:00,67.0,29.0,-100.00,SW,223,26.0,30.0,24,0.00,,,-99.99,,2013-04-28 20:52:00,
2013-04-28 15:01:00,67.0,29.0,-100.00,SW,223,26.0,30.0,24,0.00,,,-99.99,,2013-04-28 21:01:00,
2013-04-28 15:11:00,66.0,28.0,-100.00,SW,226,25.0,30.0,24,0.00,,,-99.99,,2013-04-28 21:11:00,
2013-04-28 15:21:00,66.0,28.0,-100.00,SW,226,25.0,30.0,24,0.00,,,-99.99,,2013-04-28 21:21:00,
2013-04-28 15:32:00,66.0,28.0,-100.00,SW,226,25.0,30.0,24,0.00,,,-99.99,,2013-04-28 21:32:00,
2013-04-28 15:42:00,67.0,28.0,-100.00,SW,223,28.0,32.0,23,0.00,,,-99.99,,2013-04-28 21:42:00,
2013-04-28 15:53:00,67.0,29.0,-100.00,SW,223,26.0,32.0,24,0.00,,,-99.99,,2013-04-28 21:53:00,
2013-04-28 16:02:00,67.0,29.0,-100.00,SW,223,26.0,32.0,24,0.00,,,-99.99,,2013-04-28 22:02:00,
2013-04-28 16:12:00,67.0,31.0,-100.00,SW,222,28.0,34.0,25,0.00,,,-99.99,,2013-04-28 22:12:00,
2013-04-28 16:22:00,67.0,31.0,-100.00,SW,219,29.0,33.0,26,0.00,,,-99.99,,2013-04-28 22:22:00,
2013-04-28 16:33:00,67.0,31.0,-100.00,SW,219,29.0,33.0,26,0.00,,,-99.99,,2013-04-28 22:33:00,
2013-04-28 16:42:00,69.0,30.0,-100.00,SW,230,26.0,32.0,23,0.00,,,-99.99,,2013-04-28 22:42:00,
2013-04-28 16:52:00,69.0,30.0,-100.00,SW,230,26.0,32.0,23,0.00,,,-99.99,,2013-04-28 22:52:00,
2013-04-28 17:02:00,69.0,30.0,-100.00,SW,230,26.0,32.0,23,0.00,,,-99.99,,2013-04-28 23:02:00,
2013-04-28 17:11:00,69.0,31.0,-100.00,WSW,237,25.0,29.0,24,0.00,,,-99.99,,2013-04-28 23:11:00,
2013-04-28 17:21:00,68.0,31.0,-100.00,WSW,240,30.0,35.0,25,0.00,,,-99.99,,2013-04-28 23:21:00,
2013-04-28 17:32:00,68.0,31.0,-100.00,WSW,240,30.0,35.0,25,0.00,,,-99.99,,2013-04-28 23:32:00,
2013-04-28 17:41:00,68.0,32.0,-100.00,SW,233,32.0,38.0,26,0.00,,,-99.99,,2013-04-28 23:41:00,
2013-04-28 17:52:00,68.0,32.0,-100.00,WSW,241,30.0,37.0,26,0.00,,,-99.99,,2013-04-28 23:52:00,
2013-04-28 18:01:00,68.0,32.0,-100.00,WSW,241,30.0,37.0,26,0.00,,,-99.99,,2013-04-29 00:01:00,
2013-04-28 18:11:00,67.0,33.0,-100.00,SW,234,29.0,34.0,27,0.00,,,-99.99,,2013-04-29 00:11:00,
2013-04-28 18:22:00,67.0,33.0,-100.00,WSW,240,26.0,33.0,28,0.00,,,-99.99,,2013-04-29 00:22:00,
2013-04-28 18:32:00,67.0,33.0,-100.00,WSW,240,26.0,33.0,28,0.00,,,-99.99,,2013-04-29 00:32:00,
2013-04-28 18:41:00,67.0,32.0,-100.00,SW,236,29.0,39.0,27,0.00,,,-99.99,,2013-04-29 00:41:00,
2013-04-28 18:52:00,66.0,32.0,-100.00,SW,236,26.0,31.0,28,0.00,,,-99.99,,2013-04-29 00:52:00,
2013-04-28 19:01:00,66.0,32.0,-100.00,SW,236,26.0,31.0,28,0.00,,,-99.99,,2013-04-29 01:01:00,
2013-04-28 19:12:00,66.0,31.0,-100.00,WSW,237,30.0,36.0,27,0.00,,,-99.99,,2013-04-29 01:12:00,
2013-04-28 19:21:00,66.0,31.0,-100.00,WSW,237,30.0,36.0,27,0.00,,,-99.99,,2013-04-29 01:21:00,
2013-04-28 19:32:00,66.0,31.0,-100.00,WSW,237,30.0,36.0,27,0.00,,,-99.99,,2013-04-29 01:32:00,
2013-04-28 19:41:00,65.0,33.0,-100.00,WSW,243,26.0,29.0,31,0.00,,,-99.99,,2013-04-29 01:41:00,
2013-04-28 19:52:00,63.0,33.0,-100.00,WSW,240,24.0,29.0,32,0.00,,,-99.99,,2013-04-29 01:52:00,
2013-04-28 20:01:00,63.0,33.0,-100.00,WSW,240,24.0,29.0,32,0.00,,,-99.99,,2013-04-29 02:01:00,
2013-04-28 20:11:00,63.0,33.0,-100.00,WSW,240,24.0,30.0,32,0.00,,,-99.99,,2013-04-29 02:11:00,
2013-04-28 20:21:00,63.0,33.0,-100.00,WSW,240,24.0,30.0,32,0.00,,,-99.99,,2013-04-29 02:21:00,
2013-04-28 20:31:00,63.0,33.0,-100.00,WSW,240,24.0,30.0,32,0.00,,,-99.99,,2013-04-29 02:31:00,
2013-04-28 20:41:00,61.0,29.0,-100.00,SW,234,22.0,25.0,30,0.00,,,-99.99,,2013-04-29 02:41:00,
2013-04-28 20:52:00,60.0,29.0,-100.00,WSW,237,19.0,23.0,30,0.00,,,-99.99,,2013-04-29 02:52:00,
2013-04-28 21:01:00,60.0,29.0,-100.00,WSW,237,19.0,23.0,30,0.00,,,-99.99,,2013-04-29 03:01:00,
2013-04-28 21:12:00,59.0,30.0,-100.00,SW,232,16.0,19.0,32,0.00,,,-99.99,,2013-04-29 03:12:00,
2013-04-28 21:21:00,59.0,29.0,-100.00,SW,232,18.0,22.0,32,0.00,,,-99.99,,2013-04-29 03:21:00,
2013-04-28 21:32:00,59.0,29.0,-100.00,SW,232,18.0,22.0,32,0.00,,,-99.99,,2013-04-29 03:32:00,
2013-04-28 21:42:00,59.0,29.0,-100.00,SW,232,18.0,22.0,32,0.00,,,-99.99,,2013-04-29 03:42:00,
2013-04-28 21:53:00,57.0,28.0,-100.00,SW,230,13.0,15.0,33,0.00,,,-99.99,,2013-04-29 03:53:00,
2013-04-28 22:02:00,57.0,28.0,-100.00,SW,230,13.0,15.0,33,0.00,,,-99.99,,2013-04-29 04:02:00,
2013-04-28 22:13:00,57.0,26.0,-100.00,SW,232,12.0,14.0,31,0.00,,,-99.99,,2013-04-29 04:13:00,
2013-04-28 22:23:00,53.0,31.0,-100.00,SSW,193,8.0,11.0,43,0.00,,,-99.99,,2013-04-29 04:23:00,
2013-04-28 22:32:00,53.0,31.0,-100.00,SSW,193,8.0,11.0,43,0.00,,,-99.99,,2013-04-29 04:32:00,
2013-04-28 22:43:00,54.0,31.0,-100.00,SSW,200,13.0,17.0,41,0.00,,,-99.99,,2013-04-29 04:43:00,
2013-04-28 22:52:00,54.0,31.0,-100.00,SSW,200,13.0,17.0,41,0.00,,,-99.99,,2013-04-29 04:52:00,
2013-04-28 23:01:00,54.0,31.0,-100.00,SSW,200,13.0,17.0,41,0.00,,,-99.99,,2013-04-29 05:01:00,
2013-04-28 23:12:00,55.0,31.0,-100.00,SSW,212,15.0,18.0,39,0.00,,,-99.99,,2013-04-29 05:12:00,
2013-04-28 23:22:00,55.0,31.0,-100.00,SSW,208,17.0,19.0,39,0.00,,,-99.99,,2013-04-29 05:22:00,
2013-04-28 23:32:00,55.0,31.0,-100.00,SSW,208,17.0,19.0,39,0.00,,,-99.99,,2013-04-29 05:32:00,
2013-04-28 23:42:00,54.0,30.0,-100.00,SW,223,16.0,20.0,39,0.00,,,-99.99,,2013-04-29 05:42:00,
2013-04-28 23:52:00,54.0,30.0,-100.00,SW,223,16.0,20.0,39,0.00,,,-99.99,,2013-04-29 05:52:00,